PILOTS ONLINE: 299    ATC ONLINE: 49

KHND

Henderson Executive Airport

Location

City Las Vegas
Country  United States
Latitude 35° 58' 22" N
Longitude 115° 8' 2" W
Elevation 2492 ft
Type Small Airport

Map

Weather

METAR
2014/08/27 09:56
KHND 270956Z AUTO 16006KT 10SM CLR 22/04 A3005 RMK AO2 T02160038 SLP151
TAF
2014/08/27 06:30
TAF KHND 270527Z 2706/2806 18008KT P6SM SKC 
     FM271600 05006KT P6SM SKC 
     FM280300 19007KT P6SM SKC

Runways

17L/35R 5001 ft / 75 ft
17R/35L 6501 ft / 100 ft

Outbound flights

Callsign Flying to Pilot ATD/STD ETA Aircraft

Inbound flights

Callsign Flying from Pilot ATD ETA Aircraft